sensor_id;sensor_type;location;lat;lon;timestamp;temperature;humidity
10133;DHT22;5106;50.926;7.080;2023-04-29T00:00:46;12.40;83.30
10133;DHT22;5106;50.926;7.080;2023-04-29T00:03:12;12.40;83.20
10133;DHT22;5106;50.926;7.080;2023-04-29T00:05:37;12.30;83.00
10133;DHT22;5106;50.926;7.080;2023-04-29T00:08:03;12.30;82.80
10133;DHT22;5106;50.926;7.080;2023-04-29T00:10:29;12.30;82.60
10133;DHT22;5106;50.926;7.080;2023-04-29T00:12:54;12.30;82.20
10133;DHT22;5106;50.926;7.080;2023-04-29T00:15:20;12.30;82.10
10133;DHT22;5106;50.926;7.080;2023-04-29T00:17:46;12.20;82.10
10133;DHT22;5106;50.926;7.080;2023-04-29T00:20:11;12.20;81.90
10133;DHT22;5106;50.926;7.080;2023-04-29T00:22:37;12.20;81.70
10133;DHT22;5106;50.926;7.080;2023-04-29T00:25:04;12.20;81.50
10133;DHT22;5106;50.926;7.080;2023-04-29T00:27:30;12.20;81.40
10133;DHT22;5106;50.926;7.080;2023-04-29T00:29:56;12.20;81.30
10133;DHT22;5106;50.926;7.080;2023-04-29T00:32:22;12.20;81.40
10133;DHT22;5106;50.926;7.080;2023-04-29T00:34:48;12.20;81.20
10133;DHT22;5106;50.926;7.080;2023-04-29T00:37:13;12.20;81.10
10133;DHT22;5106;50.926;7.080;2023-04-29T00:39:39;12.20;81.00
10133;DHT22;5106;50.926;7.080;2023-04-29T00:42:05;12.20;80.80
10133;DHT22;5106;50.926;7.080;2023-04-29T00:44:31;12.20;80.80
10133;DHT22;5106;50.926;7.080;2023-04-29T00:46:56;12.20;80.80
10133;DHT22;5106;50.926;7.080;2023-04-29T00:49:23;12.20;80.90
10133;DHT22;5106;50.926;7.080;2023-04-29T00:51:49;12.20;80.90
10133;DHT22;5106;50.926;7.080;2023-04-29T00:54:15;12.20;80.70
10133;DHT22;5106;50.926;7.080;2023-04-29T00:56:45;12.20;80.80
10133;DHT22;5106;50.926;7.080;2023-04-29T00:59:11;12.20;80.70
10133;DHT22;5106;50.926;7.080;2023-04-29T01:01:40;12.20;80.60
10133;DHT22;5106;50.926;7.080;2023-04-29T01:04:06;12.10;80.60
10133;DHT22;5106;50.926;7.080;2023-04-29T01:06:48;12.10;80.60
10133;DHT22;5106;50.926;7.080;2023-04-29T01:09:37;12.10;80.60
10133;DHT22;5106;50.926;7.080;2023-04-29T01:12:14;12.10;80.50
10133;DHT22;5106;50.926;7.080;2023-04-29T01:14:53;12.10;80.60
10133;DHT22;5106;50.926;7.080;2023-04-29T01:17:25;12.10;80.40
10133;DHT22;5106;50.926;7.080;2023-04-29T01:19:56;12.10;80.10
10133;DHT22;5106;50.926;7.080;2023-04-29T01:22:23;12.10;80.20
10133;DHT22;5106;50.926;7.080;2023-04-29T01:24:49;12.10;79.70
10133;DHT22;5106;50.926;7.080;2023-04-29T01:27:28;12.10;79.70
10133;DHT22;5106;50.926;7.080;2023-04-29T01:32:52;12.20;79.90
10133;DHT22;5106;50.926;7.080;2023-04-29T01:38:12;12.10;80.00
10133;DHT22;5106;50.926;7.080;2023-04-29T01:40:52;12.10;80.10
10133;DHT22;5106;50.926;7.080;2023-04-29T01:43:24;12.10;80.20
10133;DHT22;5106;50.926;7.080;2023-04-29T01:45:52;12.00;80.40
10133;DHT22;5106;50.926;7.080;2023-04-29T01:48:18;12.00;80.40
10133;DHT22;5106;50.926;7.080;2023-04-29T01:50:44;12.00;80.60
10133;DHT22;5106;50.926;7.080;2023-04-29T01:53:10;12.00;80.70
10133;DHT22;5106;50.926;7.080;2023-04-29T01:55:35;11.90;80.90
10133;DHT22;5106;50.926;7.080;2023-04-29T01:58:01;11.90;80.90
10133;DHT22;5106;50.926;7.080;2023-04-29T02:00:27;11.80;80.90
10133;DHT22;5106;50.926;7.080;2023-04-29T02:02:52;11.80;81.00
10133;DHT22;5106;50.926;7.080;2023-04-29T02:05:19;11.70;81.00
10133;DHT22;5106;50.926;7.080;2023-04-29T02:07:44;11.70;81.00
10133;DHT22;5106;50.926;7.080;2023-04-29T02:10:10;11.70;81.00
10133;DHT22;5106;50.926;7.080;2023-04-29T02:12:36;11.70;81.20
10133;DHT22;5106;50.926;7.080;2023-04-29T02:15:02;11.60;81.10
10133;DHT22;5106;50.926;7.080;2023-04-29T02:17:27;11.60;81.20
10133;DHT22;5106;50.926;7.080;2023-04-29T02:19:53;11.50;81.30
10133;DHT22;5106;50.926;7.080;2023-04-29T02:22:19;11.50;81.40
10133;DHT22;5106;50.926;7.080;2023-04-29T02:24:45;11.60;81.40
10133;DHT22;5106;50.926;7.080;2023-04-29T02:27:11;11.50;81.40
10133;DHT22;5106;50.926;7.080;2023-04-29T02:29:36;11.50;81.50
10133;DHT22;5106;50.926;7.080;2023-04-29T02:32:02;11.40;81.50
10133;DHT22;5106;50.926;7.080;2023-04-29T02:34:28;11.40;81.60
10133;DHT22;5106;50.926;7.080;2023-04-29T02:36:53;11.30;81.70
10133;DHT22;5106;50.926;7.080;2023-04-29T02:39:19;11.30;81.80
10133;DHT22;5106;50.926;7.080;2023-04-29T02:41:45;11.30;81.80
10133;DHT22;5106;50.926;7.080;2023-04-29T02:44:11;11.20;81.90
10133;DHT22;5106;50.926;7.080;2023-04-29T02:46:36;11.20;82.00
10133;DHT22;5106;50.926;7.080;2023-04-29T02:49:03;11.20;82.10
10133;DHT22;5106;50.926;7.080;2023-04-29T02:51:30;11.10;82.20
10133;DHT22;5106;50.926;7.080;2023-04-29T02:53:55;11.00;82.30
10133;DHT22;5106;50.926;7.080;2023-04-29T02:56:21;11.00;82.50
10133;DHT22;5106;50.926;7.080;2023-04-29T02:58:47;11.00;82.60
10133;DHT22;5106;50.926;7.080;2023-04-29T03:01:13;10.90;82.70
10133;DHT22;5106;50.926;7.080;2023-04-29T03:03:39;10.90;82.90
10133;DHT22;5106;50.926;7.080;2023-04-29T03:06:04;10.90;83.20
10133;DHT22;5106;50.926;7.080;2023-04-29T03:08:30;10.80;83.10
10133;DHT22;5106;50.926;7.080;2023-04-29T03:10:55;10.80;83.20
10133;DHT22;5106;50.926;7.080;2023-04-29T03:13:21;10.80;83.30
10133;DHT22;5106;50.926;7.080;2023-04-29T03:15:46;10.70;83.40
10133;DHT22;5106;50.926;7.080;2023-04-29T03:18:12;10.70;83.50
10133;DHT22;5106;50.926;7.080;2023-04-29T03:20:37;10.70;83.50
10133;DHT22;5106;50.926;7.080;2023-04-29T03:23:03;10.70;83.60
10133;DHT22;5106;50.926;7.080;2023-04-29T03:25:29;10.60;83.70
10133;DHT22;5106;50.926;7.080;2023-04-29T03:27:55;10.60;83.70
10133;DHT22;5106;50.926;7.080;2023-04-29T03:30:21;10.60;83.80
10133;DHT22;5106;50.926;7.080;2023-04-29T03:32:47;10.60;83.80
10133;DHT22;5106;50.926;7.080;2023-04-29T03:35:12;10.60;83.90
10133;DHT22;5106;50.926;7.080;2023-04-29T03:37:38;10.60;84.00
10133;DHT22;5106;50.926;7.080;2023-04-29T03:40:05;10.60;84.20
10133;DHT22;5106;50.926;7.080;2023-04-29T03:42:31;10.50;84.20
10133;DHT22;5106;50.926;7.080;2023-04-29T03:44:56;10.50;84.40
10133;DHT22;5106;50.926;7.080;2023-04-29T03:47:22;10.40;84.40
10133;DHT22;5106;50.926;7.080;2023-04-29T03:49:47;10.40;84.60
10133;DHT22;5106;50.926;7.080;2023-04-29T03:52:13;10.40;84.70
10133;DHT22;5106;50.926;7.080;2023-04-29T03:54:40;10.30;84.80
10133;DHT22;5106;50.926;7.080;2023-04-29T03:57:06;10.30;84.90
10133;DHT22;5106;50.926;7.080;2023-04-29T03:59:31;10.30;85.00
10133;DHT22;5106;50.926;7.080;2023-04-29T04:01:57;10.20;85.10
10133;DHT22;5106;50.926;7.080;2023-04-29T04:04:23;10.20;85.10
10133;DHT22;5106;50.926;7.080;2023-04-29T04:06:48;10.20;85.40
10133;DHT22;5106;50.926;7.080;2023-04-29T04:09:17;10.20;85.50
10133;DHT22;5106;50.926;7.080;2023-04-29T04:11:43;10.10;85.50
10133;DHT22;5106;50.926;7.080;2023-04-29T04:14:09;10.10;85.60
10133;DHT22;5106;50.926;7.080;2023-04-29T04:16:34;10.10;85.50
10133;DHT22;5106;50.926;7.080;2023-04-29T04:19:00;10.00;85.50
10133;DHT22;5106;50.926;7.080;2023-04-29T04:21:26;10.00;85.40
10133;DHT22;5106;50.926;7.080;2023-04-29T04:23:52;10.00;85.50
10133;DHT22;5106;50.926;7.080;2023-04-29T04:26:18;10.00;85.60
10133;DHT22;5106;50.926;7.080;2023-04-29T04:28:45;10.00;85.60
10133;DHT22;5106;50.926;7.080;2023-04-29T04:31:10;10.00;85.60
10133;DHT22;5106;50.926;7.080;2023-04-29T04:33:39;10.00;85.60
10133;DHT22;5106;50.926;7.080;2023-04-29T04:36:05;10.00;85.40
10133;DHT22;5106;50.926;7.080;2023-04-29T04:38:31;10.00;85.20
10133;DHT22;5106;50.926;7.080;2023-04-29T04:40:57;10.00;85.40
10133;DHT22;5106;50.926;7.080;2023-04-29T04:43:23;10.00;85.00
10133;DHT22;5106;50.926;7.080;2023-04-29T04:45:49;10.00;85.00
10133;DHT22;5106;50.926;7.080;2023-04-29T04:48:14;10.00;84.90
10133;DHT22;5106;50.926;7.080;2023-04-29T04:50:40;10.00;85.00
10133;DHT22;5106;50.926;7.080;2023-04-29T04:53:05;10.00;85.00
10133;DHT22;5106;50.926;7.080;2023-04-29T04:55:31;10.00;85.00
10133;DHT22;5106;50.926;7.080;2023-04-29T04:58:00;10.00;84.80
10133;DHT22;5106;50.926;7.080;2023-04-29T05:00:26;9.90;84.90
10133;DHT22;5106;50.926;7.080;2023-04-29T05:02:51;9.90;84.90
10133;DHT22;5106;50.926;7.080;2023-04-29T05:05:17;9.90;85.10
10133;DHT22;5106;50.926;7.080;2023-04-29T05:07:43;9.90;85.20
10133;DHT22;5106;50.926;7.080;2023-04-29T05:10:08;9.90;85.10
10133;DHT22;5106;50.926;7.080;2023-04-29T05:12:34;9.90;85.00
10133;DHT22;5106;50.926;7.080;2023-04-29T05:15:02;9.90;84.90
10133;DHT22;5106;50.926;7.080;2023-04-29T05:17:31;9.90;84.90
10133;DHT22;5106;50.926;7.080;2023-04-29T05:19:56;9.90;84.90
10133;DHT22;5106;50.926;7.080;2023-04-29T05:22:22;9.90;84.90
10133;DHT22;5106;50.926;7.080;2023-04-29T05:24:47;9.90;85.00
10133;DHT22;5106;50.926;7.080;2023-04-29T05:27:14;10.00;85.00
10133;DHT22;5106;50.926;7.080;2023-04-29T05:29:39;10.00;85.00
10133;DHT22;5106;50.926;7.080;2023-04-29T05:32:05;10.00;84.80
10133;DHT22;5106;50.926;7.080;2023-04-29T05:34:30;10.00;84.70
10133;DHT22;5106;50.926;7.080;2023-04-29T05:36:56;10.00;84.90
10133;DHT22;5106;50.926;7.080;2023-04-29T05:39:22;10.00;84.80
10133;DHT22;5106;50.926;7.080;2023-04-29T05:41:47;10.00;84.70
10133;DHT22;5106;50.926;7.080;2023-04-29T05:44:13;10.00;84.50
10133;DHT22;5106;50.926;7.080;2023-04-29T05:46:38;10.00;84.60
10133;DHT22;5106;50.926;7.080;2023-04-29T05:49:04;10.00;84.60
10133;DHT22;5106;50.926;7.080;2023-04-29T05:51:30;10.00;84.60
10133;DHT22;5106;50.926;7.080;2023-04-29T05:53:58;10.00;84.60
10133;DHT22;5106;50.926;7.080;2023-04-29T05:56:24;10.00;84.40
10133;DHT22;5106;50.926;7.080;2023-04-29T05:58:50;10.00;84.50
10133;DHT22;5106;50.926;7.080;2023-04-29T06:01:16;10.00;84.50
10133;DHT22;5106;50.926;7.080;2023-04-29T06:03:42;10.10;84.50
10133;DHT22;5106;50.926;7.080;2023-04-29T06:06:08;10.10;84.50
10133;DHT22;5106;50.926;7.080;2023-04-29T06:08:33;10.10;84.30
10133;DHT22;5106;50.926;7.080;2023-04-29T06:10:59;10.00;84.20
10133;DHT22;5106;50.926;7.080;2023-04-29T06:13:24;10.00;84.20
10133;DHT22;5106;50.926;7.080;2023-04-29T06:15:50;10.00;84.20
10133;DHT22;5106;50.926;7.080;2023-04-29T06:18:16;10.00;84.20
10133;DHT22;5106;50.926;7.080;2023-04-29T06:20:42;10.00;84.20
10133;DHT22;5106;50.926;7.080;2023-04-29T06:23:07;10.00;84.20
10133;DHT22;5106;50.926;7.080;2023-04-29T06:25:33;10.00;84.30
10133;DHT22;5106;50.926;7.080;2023-04-29T06:27:59;10.10;84.30
10133;DHT22;5106;50.926;7.080;2023-04-29T06:30:25;10.00;84.20
10133;DHT22;5106;50.926;7.080;2023-04-29T06:32:51;10.00;84.20
10133;DHT22;5106;50.926;7.080;2023-04-29T06:35:17;10.00;84.20
10133;DHT22;5106;50.926;7.080;2023-04-29T06:37:43;9.90;84.30
10133;DHT22;5106;50.926;7.080;2023-04-29T06:40:09;9.90;84.40
10133;DHT22;5106;50.926;7.080;2023-04-29T06:42:35;9.90;84.50
10133;DHT22;5106;50.926;7.080;2023-04-29T06:45:01;9.90;84.60
10133;DHT22;5106;50.926;7.080;2023-04-29T06:47:27;10.00;84.70
10133;DHT22;5106;50.926;7.080;2023-04-29T06:49:52;10.00;84.60
10133;DHT22;5106;50.926;7.080;2023-04-29T06:52:18;10.00;84.70
10133;DHT22;5106;50.926;7.080;2023-04-29T06:54:44;10.00;84.60
10133;DHT22;5106;50.926;7.080;2023-04-29T06:57:09;10.10;84.50
10133;DHT22;5106;50.926;7.080;2023-04-29T06:59:35;10.10;84.60
10133;DHT22;5106;50.926;7.080;2023-04-29T07:02:01;10.00;84.40
10133;DHT22;5106;50.926;7.080;2023-04-29T07:04:26;10.00;84.40
10133;DHT22;5106;50.926;7.080;2023-04-29T07:06:52;10.00;84.40
10133;DHT22;5106;50.926;7.080;2023-04-29T07:09:18;10.00;84.30
10133;DHT22;5106;50.926;7.080;2023-04-29T07:11:44;10.00;84.20
10133;DHT22;5106;50.926;7.080;2023-04-29T07:14:09;9.90;84.30
10133;DHT22;5106;50.926;7.080;2023-04-29T07:16:35;10.00;84.50
10133;DHT22;5106;50.926;7.080;2023-04-29T07:19:01;10.00;84.40
10133;DHT22;5106;50.926;7.080;2023-04-29T07:21:26;10.00;84.40
10133;DHT22;5106;50.926;7.080;2023-04-29T07:23:52;10.10;84.30
10133;DHT22;5106;50.926;7.080;2023-04-29T07:26:19;10.10;84.30
10133;DHT22;5106;50.926;7.080;2023-04-29T07:28:47;10.10;84.40
10133;DHT22;5106;50.926;7.080;2023-04-29T07:31:12;10.20;84.30
10133;DHT22;5106;50.926;7.080;2023-04-29T07:33:38;10.20;84.20
10133;DHT22;5106;50.926;7.080;2023-04-29T07:36:04;10.20;83.90
10133;DHT22;5106;50.926;7.080;2023-04-29T07:38:32;10.30;83.80
10133;DHT22;5106;50.926;7.080;2023-04-29T07:41:01;10.30;83.90
10133;DHT22;5106;50.926;7.080;2023-04-29T07:43:27;10.30;84.00
10133;DHT22;5106;50.926;7.080;2023-04-29T07:45:53;10.30;83.60
10133;DHT22;5106;50.926;7.080;2023-04-29T07:48:18;10.40;83.70
10133;DHT22;5106;50.926;7.080;2023-04-29T07:50:45;10.40;83.70
10133;DHT22;5106;50.926;7.080;2023-04-29T07:53:11;10.40;83.50
10133;DHT22;5106;50.926;7.080;2023-04-29T07:55:37;10.50;83.50
10133;DHT22;5106;50.926;7.080;2023-04-29T07:58:03;10.50;83.70
10133;DHT22;5106;50.926;7.080;2023-04-29T08:00:29;10.50;83.50
10133;DHT22;5106;50.926;7.080;2023-04-29T08:02:55;10.50;83.50
10133;DHT22;5106;50.926;7.080;2023-04-29T08:05:21;10.50;83.40
10133;DHT22;5106;50.926;7.080;2023-04-29T08:07:50;10.60;83.40
10133;DHT22;5106;50.926;7.080;2023-04-29T08:10:17;10.50;83.40
10133;DHT22;5106;50.926;7.080;2023-04-29T08:12:46;10.60;83.40
10133;DHT22;5106;50.926;7.080;2023-04-29T08:15:12;10.60;83.50
10133;DHT22;5106;50.926;7.080;2023-04-29T08:17:41;10.70;83.50
10133;DHT22;5106;50.926;7.080;2023-04-29T08:20:07;10.70;83.50
10133;DHT22;5106;50.926;7.080;2023-04-29T08:22:33;10.80;83.50
10133;DHT22;5106;50.926;7.080;2023-04-29T08:24:59;10.80;83.40
10133;DHT22;5106;50.926;7.080;2023-04-29T08:27:25;10.80;83.30
10133;DHT22;5106;50.926;7.080;2023-04-29T08:29:51;10.70;83.00
10133;DHT22;5106;50.926;7.080;2023-04-29T08:32:17;10.70;83.10
10133;DHT22;5106;50.926;7.080;2023-04-29T08:34:42;10.60;83.10
10133;DHT22;5106;50.926;7.080;2023-04-29T08:37:09;10.60;83.00
10133;DHT22;5106;50.926;7.080;2023-04-29T08:39:34;10.70;82.90
10133;DHT22;5106;50.926;7.080;2023-04-29T08:42:07;10.80;82.90
10133;DHT22;5106;50.926;7.080;2023-04-29T08:44:32;10.70;82.80
10133;DHT22;5106;50.926;7.080;2023-04-29T08:46:59;10.70;82.70
10133;DHT22;5106;50.926;7.080;2023-04-29T08:49:27;10.80;82.70
10133;DHT22;5106;50.926;7.080;2023-04-29T08:51:53;10.90;82.60
10133;DHT22;5106;50.926;7.080;2023-04-29T08:54:18;11.00;81.90
10133;DHT22;5106;50.926;7.080;2023-04-29T08:56:45;11.10;81.70
10133;DHT22;5106;50.926;7.080;2023-04-29T08:59:13;11.20;81.80
10133;DHT22;5106;50.926;7.080;2023-04-29T09:01:41;11.40;81.40
10133;DHT22;5106;50.926;7.080;2023-04-29T09:06:56;11.50;80.80
10133;DHT22;5106;50.926;7.080;2023-04-29T09:09:23;11.50;80.20
10133;DHT22;5106;50.926;7.080;2023-04-29T09:11:49;11.50;80.50
10133;DHT22;5106;50.926;7.080;2023-04-29T09:14:15;11.50;80.80
10133;DHT22;5106;50.926;7.080;2023-04-29T09:16:40;11.60;80.80
10133;DHT22;5106;50.926;7.080;2023-04-29T09:19:06;11.70;80.70
10133;DHT22;5106;50.926;7.080;2023-04-29T09:21:32;11.70;80.50
10133;DHT22;5106;50.926;7.080;2023-04-29T09:23:59;11.60;80.00
10133;DHT22;5106;50.926;7.080;2023-04-29T09:26:26;11.50;80.20
10133;DHT22;5106;50.926;7.080;2023-04-29T09:31:32;11.50;80.40
10133;DHT22;5106;50.926;7.080;2023-04-29T09:34:10;11.40;80.70
10133;DHT22;5106;50.926;7.080;2023-04-29T09:36:52;11.40;80.70
10133;DHT22;5106;50.926;7.080;2023-04-29T09:39:23;11.40;80.70
10133;DHT22;5106;50.926;7.080;2023-04-29T09:42:15;11.30;80.70
10133;DHT22;5106;50.926;7.080;2023-04-29T09:44:44;11.30;81.00
10133;DHT22;5106;50.926;7.080;2023-04-29T09:47:15;11.30;81.00
10133;DHT22;5106;50.926;7.080;2023-04-29T09:49:59;11.20;81.00
10133;DHT22;5106;50.926;7.080;2023-04-29T09:52:40;11.20;81.20
10133;DHT22;5106;50.926;7.080;2023-04-29T09:55:09;11.30;81.20
10133;DHT22;5106;50.926;7.080;2023-04-29T09:57:38;11.30;81.30
10133;DHT22;5106;50.926;7.080;2023-04-29T10:00:06;11.40;81.30
10133;DHT22;5106;50.926;7.080;2023-04-29T10:02:32;11.40;81.10
10133;DHT22;5106;50.926;7.080;2023-04-29T10:04:58;11.40;80.90
10133;DHT22;5106;50.926;7.080;2023-04-29T10:07:24;11.40;80.90
10133;DHT22;5106;50.926;7.080;2023-04-29T10:09:52;11.50;81.00
10133;DHT22;5106;50.926;7.080;2023-04-29T10:12:19;11.40;80.70
10133;DHT22;5106;50.926;7.080;2023-04-29T10:14:56;11.50;80.70
10133;DHT22;5106;50.926;7.080;2023-04-29T10:17:49;11.50;80.80
10133;DHT22;5106;50.926;7.080;2023-04-29T10:20:24;11.50;80.80
10133;DHT22;5106;50.926;7.080;2023-04-29T10:22:54;11.60;81.20
10133;DHT22;5106;50.926;7.080;2023-04-29T10:25:22;11.50;80.80
10133;DHT22;5106;50.926;7.080;2023-04-29T10:27:49;11.60;81.00
10133;DHT22;5106;50.926;7.080;2023-04-29T10:30:18;11.60;80.90
10133;DHT22;5106;50.926;7.080;2023-04-29T10:32:45;11.50;80.90
10133;DHT22;5106;50.926;7.080;2023-04-29T10:35:12;11.50;80.80
10133;DHT22;5106;50.926;7.080;2023-04-29T10:37:40;11.50;80.80
10133;DHT22;5106;50.926;7.080;2023-04-29T10:42:53;11.40;81.00
10133;DHT22;5106;50.926;7.080;2023-04-29T10:45:24;11.40;80.90
10133;DHT22;5106;50.926;7.080;2023-04-29T10:53:09;11.30;81.40
10133;DHT22;5106;50.926;7.080;2023-04-29T10:55:36;11.30;81.40
10133;DHT22;5106;50.926;7.080;2023-04-29T10:58:03;11.20;81.50
10133;DHT22;5106;50.926;7.080;2023-04-29T11:00:35;11.10;81.50
10133;DHT22;5106;50.926;7.080;2023-04-29T11:03:05;11.10;81.80
10133;DHT22;5106;50.926;7.080;2023-04-29T11:05:35;11.10;81.70
10133;DHT22;5106;50.926;7.080;2023-04-29T11:08:18;11.10;81.90
10133;DHT22;5106;50.926;7.080;2023-04-29T11:10:53;11.10;81.70
10133;DHT22;5106;50.926;7.080;2023-04-29T11:13:30;11.10;81.70
10133;DHT22;5106;50.926;7.080;2023-04-29T11:16:12;11.00;81.90
10133;DHT22;5106;50.926;7.080;2023-04-29T11:19:03;11.00;82.00
10133;DHT22;5106;50.926;7.080;2023-04-29T11:21:29;11.00;82.30
10133;DHT22;5106;50.926;7.080;2023-04-29T11:23:57;11.10;82.20
10133;DHT22;5106;50.926;7.080;2023-04-29T11:26:23;11.10;82.00
10133;DHT22;5106;50.926;7.080;2023-04-29T11:28:50;11.20;81.90
10133;DHT22;5106;50.926;7.080;2023-04-29T11:31:16;11.10;82.00
10133;DHT22;5106;50.926;7.080;2023-04-29T11:33:42;11.10;82.00
10133;DHT22;5106;50.926;7.080;2023-04-29T11:36:10;11.10;81.80
10133;DHT22;5106;50.926;7.080;2023-04-29T11:38:39;11.20;81.80
10133;DHT22;5106;50.926;7.080;2023-04-29T11:41:05;11.10;81.70
10133;DHT22;5106;50.926;7.080;2023-04-29T11:43:31;11.10;81.90
10133;DHT22;5106;50.926;7.080;2023-04-29T11:48:24;11.10;81.90
10133;DHT22;5106;50.926;7.080;2023-04-29T11:50:52;11.00;81.90
10133;DHT22;5106;50.926;7.080;2023-04-29T11:53:20;11.00;82.10
10133;DHT22;5106;50.926;7.080;2023-04-29T11:55:46;11.00;82.20
10133;DHT22;5106;50.926;7.080;2023-04-29T11:58:15;11.00;82.20
10133;DHT22;5106;50.926;7.080;2023-04-29T12:00:42;11.00;82.20
10133;DHT22;5106;50.926;7.080;2023-04-29T12:03:20;11.00;82.40
10133;DHT22;5106;50.926;7.080;2023-04-29T12:05:50;11.00;82.20
10133;DHT22;5106;50.926;7.080;2023-04-29T12:08:24;11.00;82.30
10133;DHT22;5106;50.926;7.080;2023-04-29T12:10:51;11.00;82.40
10133;DHT22;5106;50.926;7.080;2023-04-29T12:13:17;11.20;82.40
10133;DHT22;5106;50.926;7.080;2023-04-29T12:15:44;11.30;82.20
10133;DHT22;5106;50.926;7.080;2023-04-29T12:18:12;11.50;82.10
10133;DHT22;5106;50.926;7.080;2023-04-29T12:20:38;11.50;81.80
10133;DHT22;5106;50.926;7.080;2023-04-29T12:23:15;11.60;81.70
10133;DHT22;5106;50.926;7.080;2023-04-29T12:25:56;11.70;81.60
10133;DHT22;5106;50.926;7.080;2023-04-29T12:28:22;11.70;81.60
10133;DHT22;5106;50.926;7.080;2023-04-29T12:30:49;11.80;81.40
10133;DHT22;5106;50.926;7.080;2023-04-29T12:33:23;11.80;81.50
10133;DHT22;5106;50.926;7.080;2023-04-29T12:35:50;11.80;81.10
10133;DHT22;5106;50.926;7.080;2023-04-29T12:38:23;11.90;81.00
10133;DHT22;5106;50.926;7.080;2023-04-29T12:40:49;11.80;80.90
10133;DHT22;5106;50.926;7.080;2023-04-29T12:43:15;11.80;81.00
10133;DHT22;5106;50.926;7.080;2023-04-29T12:45:41;11.70;81.00
10133;DHT22;5106;50.926;7.080;2023-04-29T12:48:07;11.70;81.10
10133;DHT22;5106;50.926;7.080;2023-04-29T12:50:35;11.70;81.10
10133;DHT22;5106;50.926;7.080;2023-04-29T12:53:06;11.70;81.00
10133;DHT22;5106;50.926;7.080;2023-04-29T12:55:33;11.80;80.90
10133;DHT22;5106;50.926;7.080;2023-04-29T12:57:59;11.90;81.00
10133;DHT22;5106;50.926;7.080;2023-04-29T13:00:25;11.80;81.00
10133;DHT22;5106;50.926;7.080;2023-04-29T13:02:51;11.90;81.20
10133;DHT22;5106;50.926;7.080;2023-04-29T13:05:16;11.90;80.80
10133;DHT22;5106;50.926;7.080;2023-04-29T13:07:42;12.00;80.70
10133;DHT22;5106;50.926;7.080;2023-04-29T13:10:08;12.00;80.90
10133;DHT22;5106;50.926;7.080;2023-04-29T13:12:36;12.20;80.70
10133;DHT22;5106;50.926;7.080;2023-04-29T13:15:02;12.40;80.30
10133;DHT22;5106;50.926;7.080;2023-04-29T13:17:27;12.50;79.80
10133;DHT22;5106;50.926;7.080;2023-04-29T13:19:53;12.60;79.70
10133;DHT22;5106;50.926;7.080;2023-04-29T13:22:19;12.70;80.00
10133;DHT22;5106;50.926;7.080;2023-04-29T13:24:44;12.80;79.60
10133;DHT22;5106;50.926;7.080;2023-04-29T13:27:11;12.90;79.30
10133;DHT22;5106;50.926;7.080;2023-04-29T13:29:36;13.00;78.90
10133;DHT22;5106;50.926;7.080;2023-04-29T13:32:02;13.00;77.80
10133;DHT22;5106;50.926;7.080;2023-04-29T13:34:28;13.10;78.40
10133;DHT22;5106;50.926;7.080;2023-04-29T13:36:53;13.00;77.60
10133;DHT22;5106;50.926;7.080;2023-04-29T13:39:19;13.10;78.20
10133;DHT22;5106;50.926;7.080;2023-04-29T13:41:47;13.20;78.10
10133;DHT22;5106;50.926;7.080;2023-04-29T13:44:16;13.30;78.30
10133;DHT22;5106;50.926;7.080;2023-04-29T13:46:42;13.40;78.20
10133;DHT22;5106;50.926;7.080;2023-04-29T13:49:08;13.50;78.20
10133;DHT22;5106;50.926;7.080;2023-04-29T13:51:33;13.60;78.00
10133;DHT22;5106;50.926;7.080;2023-04-29T13:53:59;13.70;77.60
10133;DHT22;5106;50.926;7.080;2023-04-29T13:56:25;13.70;76.70
10133;DHT22;5106;50.926;7.080;2023-04-29T13:58:51;13.80;76.90
10133;DHT22;5106;50.926;7.080;2023-04-29T14:01:17;13.90;76.80
10133;DHT22;5106;50.926;7.080;2023-04-29T14:03:43;14.00;76.90
10133;DHT22;5106;50.926;7.080;2023-04-29T14:06:08;14.00;76.40
10133;DHT22;5106;50.926;7.080;2023-04-29T14:08:34;14.00;76.00
10133;DHT22;5106;50.926;7.080;2023-04-29T14:11:00;14.00;75.60
10133;DHT22;5106;50.926;7.080;2023-04-29T14:13:25;13.90;75.90
10133;DHT22;5106;50.926;7.080;2023-04-29T14:15:51;13.90;75.80
10133;DHT22;5106;50.926;7.080;2023-04-29T14:18:18;13.80;76.40
10133;DHT22;5106;50.926;7.080;2023-04-29T14:20:44;13.80;75.90
10133;DHT22;5106;50.926;7.080;2023-04-29T14:23:09;13.70;76.40
10133;DHT22;5106;50.926;7.080;2023-04-29T14:25:35;13.60;77.10
10133;DHT22;5106;50.926;7.080;2023-04-29T14:28:00;13.50;76.60
10133;DHT22;5106;50.926;7.080;2023-04-29T14:30:26;13.50;77.00
10133;DHT22;5106;50.926;7.080;2023-04-29T14:32:51;13.50;77.20
10133;DHT22;5106;50.926;7.080;2023-04-29T14:35:17;13.50;77.40
10133;DHT22;5106;50.926;7.080;2023-04-29T14:37:43;13.50;77.10
10133;DHT22;5106;50.926;7.080;2023-04-29T14:40:09;13.40;77.30
10133;DHT22;5106;50.926;7.080;2023-04-29T14:42:34;13.40;77.60
10133;DHT22;5106;50.926;7.080;2023-04-29T14:45:00;13.30;77.80
10133;DHT22;5106;50.926;7.080;2023-04-29T14:47:26;13.30;77.60
10133;DHT22;5106;50.926;7.080;2023-04-29T14:49:51;13.30;77.40
10133;DHT22;5106;50.926;7.080;2023-04-29T14:52:17;13.30;77.80
10133;DHT22;5106;50.926;7.080;2023-04-29T14:54:47;13.30;78.00
10133;DHT22;5106;50.926;7.080;2023-04-29T14:57:13;13.40;77.90
10133;DHT22;5106;50.926;7.080;2023-04-29T14:59:38;13.40;77.90
10133;DHT22;5106;50.926;7.080;2023-04-29T15:02:04;13.40;78.10
10133;DHT22;5106;50.926;7.080;2023-04-29T15:04:30;13.40;77.70
10133;DHT22;5106;50.926;7.080;2023-04-29T15:06:56;13.40;77.10
10133;DHT22;5106;50.926;7.080;2023-04-29T15:09:22;13.40;77.20
10133;DHT22;5106;50.926;7.080;2023-04-29T15:11:49;13.50;77.40
10133;DHT22;5106;50.926;7.080;2023-04-29T15:14:14;13.40;77.20
10133;DHT22;5106;50.926;7.080;2023-04-29T15:16:40;13.40;77.30
10133;DHT22;5106;50.926;7.080;2023-04-29T15:19:05;13.40;77.00
10133;DHT22;5106;50.926;7.080;2023-04-29T15:21:31;13.40;77.30
10133;DHT22;5106;50.926;7.080;2023-04-29T15:23:57;13.50;77.70
10133;DHT22;5106;50.926;7.080;2023-04-29T15:26:22;13.50;77.30
10133;DHT22;5106;50.926;7.080;2023-04-29T15:28:48;13.60;77.10
10133;DHT22;5106;50.926;7.080;2023-04-29T15:31:13;13.50;76.00
10133;DHT22;5106;50.926;7.080;2023-04-29T15:33:39;13.60;76.20
10133;DHT22;5106;50.926;7.080;2023-04-29T15:36:06;13.50;76.10
10133;DHT22;5106;50.926;7.080;2023-04-29T15:38:31;13.50;75.70
10133;DHT22;5106;50.926;7.080;2023-04-29T15:41:00;13.50;76.30
10133;DHT22;5106;50.926;7.080;2023-04-29T15:43:27;13.60;76.40
10133;DHT22;5106;50.926;7.080;2023-04-29T15:45:53;13.60;76.00
10133;DHT22;5106;50.926;7.080;2023-04-29T15:48:19;13.70;75.90
10133;DHT22;5106;50.926;7.080;2023-04-29T15:50:45;13.80;75.90
10133;DHT22;5106;50.926;7.080;2023-04-29T15:53:11;13.80;75.40
10133;DHT22;5106;50.926;7.080;2023-04-29T15:55:36;13.90;75.70
10133;DHT22;5106;50.926;7.080;2023-04-29T15:58:02;13.90;75.50
10133;DHT22;5106;50.926;7.080;2023-04-29T16:00:27;14.00;75.70
10133;DHT22;5106;50.926;7.080;2023-04-29T16:02:53;13.90;75.20
10133;DHT22;5106;50.926;7.080;2023-04-29T16:05:19;13.90;75.30
10133;DHT22;5106;50.926;7.080;2023-04-29T16:07:45;13.90;75.40